Cisco Butte, California Weather observations

Data are for observation ending at time listed.
 Day   Time    Ave.   Ave.  Ave.  Vector   Max.   Stn.    Total    Solar   Ave.   Snow 
  of    of     Air    Rel.  Wind   Wind    Wind   Baro.  Precip.   Rad.    Soil   Depth
Year   Day     Temp.  Hum.  Speed  Dir.    Gust   Pres.                    Temp.       
2014   (PST)    F      %     mph   deg.    mph     mb.     in.     W/m2     F      in. 
---------------------------------------------------------------------------------------  
 330    5:50   44.3    40    5.5    82      8.7   834.0    0.00       0    999.0  158.5
 330    6:00   42.9    43    5.6    89      9.1   834.0    0.00       0    999.0  158.5
 330    6:10   43.0    43    5.3   100      9.3   834.0    0.00       0    999.0  158.4
 330    6:20   42.5    44    5.7    96      8.8   834.0    0.00       0    999.0  157.0
 330    6:30   42.8    43    6.3    94     10.2   834.0    0.00       0    999.0  156.8
 330    6:40   42.7    43    5.7    93      9.4   834.0    0.00       0    999.0  156.8
 330    6:50   42.8    43    5.1    88      7.4   834.0    0.00       1    999.0  156.8
 330    7:00   43.5    41    5.6    86      8.7   834.0    0.00       2    999.0  157.8
 330    7:10   43.1    42    6.3    94     10.1   834.0    0.00       4    999.0  158.2
 330    7:20   42.8    43    5.1    96      8.0   835.0    0.00       9    999.0  157.4
 330    7:30   43.2    42    6.3    90     10.0   835.0    0.00      31    999.0  158.1
 330    7:40   43.9    41    6.1    84      8.4   835.0    0.00      43    999.0  158.5
 330    7:50   44.7    40    6.1    86      8.6   835.0    0.00      59    999.0  158.6
 330    8:00   45.6    38    5.4    94      8.5   835.0    0.00      77    999.0  158.5
 330    8:10   46.6    37    4.5    90      6.4   835.0    0.00      94    999.0  158.4
 330    8:20   46.8    36    4.4    90      7.8   835.0    0.00      73    999.0  157.9
 330    8:30   47.6    35    4.5    96      6.7   835.0    0.00     101    999.0  157.6
 330    8:40   48.5    34    4.8    84      7.5   835.0    0.00     121    999.0  157.3
 330    8:50   48.9    34    4.2    89      5.9   835.0    0.00     146    999.0  157.7
 330    9:00   49.7    33    5.2   101      8.3   835.0    0.00     162    999.0  157.2
 330    9:10   50.6    33    5.0   107      8.8   835.0    0.00     177    999.0  157.5
 330    9:20   51.4    32    5.3   106      8.6   835.0    0.00     192    999.0  157.2
 330    9:30   52.4    31    5.7   105      8.0   835.0    0.00     207    999.0  157.2
 330    9:40   53.3    30    5.3   103      7.2   835.0    0.00     222    999.0  157.4
 330    9:50   54.5    29    4.2    92      6.9   835.0    0.00     235    999.0  156.8
 330   10:00   56.2    27    3.4    96      5.4   835.0    0.00     248    999.0  156.8
 330   10:10   57.9    24    2.8   130      5.3   835.0    0.00     260    999.0  156.5
 330   10:20   59.6    24    2.2   175      5.6   835.0    0.00     271    999.0  156.3
 330   10:30   63.3    20    2.0   239      4.9   835.0    0.00     282    999.0  155.4
 330   10:40   63.8    18    2.9   233      7.6   835.0    0.00     291    999.0  155.5
 330   10:50   63.1    18    2.6   232      7.5   834.0    0.00     299    999.0  155.7
 330   11:00   62.6    17    4.1   266      8.0   834.0    0.00     306    999.0  156.0
 330   11:10   62.2    16    5.7   271      9.0   834.0    0.00     311    999.0  156.4
 330   11:20   61.6    16    4.9   273     10.1   834.0    0.00     317    999.0  156.2
 330   11:30   63.2    16    5.5   260     12.1   834.0    0.00     315    999.0  155.9
 330   11:40   62.7    16    6.9   259     13.4   834.0    0.00     320    999.0  156.1
 330   11:50   61.9    17    6.3   255     12.5   834.0    0.00     320    999.0  156.7
 330   12:00   62.1    18    4.8   239      8.6   833.0    0.00     324    999.0  155.8
 330   12:10   62.5    18    5.5   270     10.5   833.0    0.00     328    999.0  156.4
 330   12:20   62.7    18    6.2   280     11.5   833.0    0.00     302    999.0  156.2
 330   12:30   61.9    17    4.5   233      9.6   833.0    0.00     295    999.0  155.7
 330   12:40   62.8    18    4.3   258      8.1   833.0    0.00     293    999.0  155.8
 330   12:50   62.3    18    4.0   243      7.4   833.0    0.00     292    999.0  155.7
 330   13:00   62.3    18    4.8   257     10.0   833.0    0.00     288    999.0  155.6
 330   13:10   62.2    18    7.0   263     12.9   833.0    0.00     281    999.0  156.5
 330   13:20   61.7    18    7.0   271     13.0   833.0    0.00     274    999.0  156.0
 330   13:30   61.3    18    9.5   267     14.5   833.0    0.00     266    999.0  155.8
 330   13:40   60.7    18   10.3   272     15.9   833.0    0.00     243    999.0  156.4
 330   13:50   60.5    20    8.7   268     15.1   832.0    0.00     225    999.0  156.2
 330   14:00   60.5    21    8.5   266     15.3   832.0    0.00     239    999.0  155.8
 330   14:10   60.8    20    8.1   274     13.5   832.0    0.00     213    999.0  155.4
 330   14:20   60.8    20    7.9   269     15.8   832.0    0.00     201    999.0  155.6
 330   14:30   61.0    19    7.6   268     14.5   832.0    0.00      72    999.0  156.5
 330   14:40   60.4    19    8.8   273     13.4   832.0    0.00      44    999.0  157.4
 330   14:50   60.2    18    9.3   265     14.7   832.0    0.00      45    999.0  157.4
 330   15:00   60.3    18    9.8   268     15.8   832.0    0.00     148    999.0  157.8
 330   15:10   60.4    18    9.1   269     15.9   832.0    0.00      65    999.0  157.9
 330   15:20   59.4    19    9.5   270     16.1   832.0    0.00      82    999.0  158.0
 330   15:30   59.1    20    7.3   268     13.2   832.0    0.00      81    999.0  158.2
 330   15:40  999.0   999  999.0   999    999.0   999.0   999.00     999    999.0  999.0
 330   15:50   57.0    22    7.1   272     12.3   832.0    0.00      66    999.0  156.3
 330   16:00   57.5    19    3.8   313     15.6   832.0    0.00      75    999.0  158.2
 330   16:10   56.9    19    1.8   294      5.2   832.0    0.00      46    999.0  158.3
 330   16:20   56.1    18    3.0   300      9.1   832.0    0.00      17    999.0  158.4
 330   16:30   55.6    18    3.2   294      8.8   832.0    0.00       7    999.0  158.3
 330   16:40   55.1    18    2.3    20      7.4   832.0    0.00       4    999.0  158.1
 330   16:50   54.8    18    3.6   308      8.0   832.0    0.00       1    999.0  158.2
 330   17:00   54.8    17    1.9   307      4.7   832.0    0.00       0    999.0  158.3
 330   17:10   54.6    18    1.7   254      5.6   832.0    0.00       0    999.0  158.2
 330   17:20   54.4    17    2.5   264      6.4   832.0    0.00       0    999.0  158.3
 330   17:30   54.3    17    2.0   196      5.8   832.0    0.00       0    999.0  158.3
 330   17:40   54.3    16    2.5   312      6.8   832.0    0.00       0    999.0  158.3
 330   17:50   54.2    17    2.0   269      5.5   832.0    0.00       0    999.0  158.3
 330   18:00   53.9    17    2.2   357      5.9   832.0    0.00       0    999.0  158.3
 330   18:10   54.0    17    2.1   248      8.4   832.0    0.00       0    999.0  158.3
 330   18:20   54.1    17    3.3   212      8.0   832.0    0.00       0    999.0  158.3
 330   18:30   54.1    18    3.0   193      9.9   832.0    0.00       0    999.0  158.3
 330   18:40   54.2    17    3.5   219      9.2   832.0    0.00       0    999.0  158.3
 330   18:50   54.2    17    3.3   208      9.0   832.0    0.00       0    999.0  158.3
 330   19:00   54.0    18    2.8   200      8.6   832.0    0.00       0    999.0  158.3
 330   19:10   54.0    18    3.9   211      8.8   832.0    0.00       0    999.0  158.3
 330   19:20   53.9    19    3.8   209      9.8   832.0    0.00       0    999.0  158.3
 330   19:30   53.7    20    4.2   221     11.7   832.0    0.00       0    999.0  157.8
 330   19:40   53.7    21    4.2   206     10.0   832.0    0.00       0    999.0  156.3
 330   19:50   53.6    21    4.4   222      9.3   832.0    0.00       0    999.0  157.2
 330   20:00   53.7    21    4.9   209     10.1   832.0    0.00       0    999.0  157.5
 330   20:10   53.5    22    3.1   237      8.8   832.0    0.00       0    999.0  157.7
 330   20:20   53.2    22    4.0   225      9.6   832.0    0.00       0    999.0  158.0
 330   20:30   53.0    21    3.4   207      9.3   832.0    0.00       0    999.0  157.4
 330   20:40   52.8    20    3.0   214     10.8   832.0    0.00       0    999.0  157.5
 330   20:50   52.8    20    4.7   230     12.6   832.0    0.00       0    999.0  157.6
 330   21:00   52.8    21    4.0   226     10.5   832.0    0.00       0    999.0  157.7
 330   21:10   52.5    22    3.5   245      9.8   832.0    0.00       0    999.0  157.8
 330   21:20   52.4    22    3.7   244     11.1   832.0    0.00       0    999.0  158.2
 330   21:30   52.4    23    3.8   205     12.1   832.0    0.00       0    999.0  158.3
 330   21:40   52.2    24    4.3   222      9.4   832.0    0.00       0    999.0  158.4
 330   21:50   52.0    24    3.9   243     10.0   832.0    0.00       0    999.0  158.7
 330   22:00   52.0    24    4.5   246     11.3   832.0    0.00       0    999.0  158.7
 330   22:10   52.0    24    4.4   268     13.2   832.0    0.00       0    999.0  158.6
 330   22:20   51.8    25    4.9   231     11.5   832.0    0.00       0    999.0  158.7
 330   22:30   51.4    27    4.3   236     10.6   832.0    0.00       0    999.0  158.8
 330   22:40   50.8    28    3.5   232     13.4   832.0    0.00       0    999.0  158.9
 330   22:50   50.6    27    4.4   238     11.7   832.0    0.00       0    999.0  158.8
 330   23:00   50.6    27    4.5   254     12.3   832.0    0.00       0    999.0  158.9
 330   23:10   50.6    27    4.7   246     13.3   832.0    0.00       0    999.0  158.8
 330   23:20   50.6    26    5.0   261     14.0   832.0    0.00       0    999.0  159.0
 330   23:30   50.9    26    7.5   276     16.4   832.0    0.00       0    999.0  159.1
 330   23:40   50.8    27    5.5   271     13.5   832.0    0.00       0    999.0  159.0
 330   23:50   50.7    28    5.9   268     12.6   832.0    0.00       0    999.0  159.1
 331    0:00   50.6    29    5.9   265     14.1   832.0    0.00       0    999.0  158.8
 331    0:10   50.6    29    5.6   258     13.7   832.0    0.00       0    999.0  158.4
 331    0:20   50.6    30    6.2   242     12.1   832.0    0.00       0    999.0  158.4
 331    0:30   50.5    30    5.8   236     14.3   831.0    0.00       0    999.0  157.9
 331    0:40   50.4    30    6.2   232     18.9   831.0    0.00       0    999.0  156.2
 331    0:50   50.1    30    4.6   248     13.1   831.0    0.00       0    999.0    0.1
 331    1:00   50.1    29    5.4   252     13.4   831.0    0.00       0    999.0   16.4
 331    1:10   50.2    28    6.2   263     15.1   831.0    0.00       0    999.0  157.2
 331    1:20   50.1    28    4.4   240     11.4   831.0    0.00       0    999.0  158.4
 331    1:30   50.1    28    5.1   221     12.3   831.0    0.00       0    999.0  158.4
 331    1:40   50.4    27    5.0   223     13.2   831.0    0.00       0    999.0  158.4
 331    1:50   50.4    27    5.1   231     12.3   831.0    0.00       0    999.0  158.5
 331    2:00   50.5    26    3.9   233     11.0   831.0    0.00       0    999.0  159.0
 331    2:10   50.8    25    4.9   247     12.3   831.0    0.00       0    999.0  159.1
 331    2:20   51.1    24    4.7   236     11.0   831.0    0.00       0    999.0  158.9
 331    2:30   51.1    24    4.8   241     14.1   831.0    0.00       0    999.0  158.9
 331    2:40   51.2    24    5.1   235     14.0   831.0    0.00       0    999.0  158.8
 331    2:50   51.1    25    5.8   261     13.7   831.0    0.00       0    999.0  158.8
 331    3:00   51.3    25    9.4   273     18.4   831.0    0.00       0    999.0  158.8
 331    3:10   51.5    24   11.9   267     20.2   831.0    0.00       0    999.0  158.8
 331    3:20   51.4    25   11.9   266     22.0   831.0    0.00       0    999.0  158.8
 331    3:30   51.1    27   11.9   268     18.0   831.0    0.00       0    999.0  158.8
 331    3:40   50.6    29   11.9   269     21.0   830.0    0.00       0    999.0  159.0
 331    3:50   50.4    30   10.3   275     18.2   830.0    0.00       0    999.0  158.8
 331    4:00   50.4    29    9.2   269     16.2   830.0    0.00       0    999.0  158.7
 331    4:10   50.7    28    7.4   271     15.9   830.0    0.00       0    999.0  158.6
 331    4:20   50.9    28    7.2   272     14.9   830.0    0.00       0    999.0  158.4
 331    4:30   51.0    27    6.7   259     14.2   830.0    0.00       0    999.0  158.4
 331    4:40   51.0    27    6.4   272     14.1   830.0    0.00       0    999.0  158.8
 331    4:50   51.0    26    8.2   268     15.0   830.0    0.00       0    999.0  158.9
 331    5:00   51.0    26    8.0   262     14.6   830.0    0.00       0    999.0  158.8
 331    5:10   51.0    26    8.1   263     15.6   830.0    0.00       0    999.0  158.8
 331    5:20   51.0    25    7.7   269     18.0   830.0    0.00       0    999.0  158.8
 331    5:30   50.9    25    7.8   256     14.8   830.0    0.00       0    999.0  158.8
 331    5:40   50.8    26    5.3   275     11.5   830.0    0.00       0    999.0  158.8

Return to Cisco Butte graphs page.


Western Regional Climate Center,wrcc@dri.edu